Time;durP1;ratioP1;P1;durP2;ratioP2;P2;SDS_P1;SDS_P2;PMS_P1;PMS_P2;Temp;Humidity;BMP_temperature;BMP_pressure;BME280_temperature;BME280_humidity;BME280_pressure;Samples;Min_cycle;Max_cycle;Signal;HPM_P1;HPM_P2
2022/10/11 00:01:15;;;;;;;4.03;3.00;;;;;;;;;;4989271;28;20202;-54
2022/10/11 00:03:41;;;;;;;3.73;2.57;;;;;;;;;;4979925;28;20261;-53
2022/10/11 00:06:08;;;;;;;5.47;2.60;;;;;;;;;;4980562;28;20206;-55
2022/10/11 00:08:34;;;;;;;5.37;3.60;;;;;;;;;;4981274;28;20214;-54
2022/10/11 00:11:03;;;;;;;4.13;3.10;;;;;;;;;;4992148;28;20264;-55
2022/10/11 00:13:29;;;;;;;4.03;3.00;;;;;;;;;;4983931;28;20183;-54
2022/10/11 00:15:56;;;;;;;4.87;2.93;;;;;;;;;;4975556;28;20209;-54
2022/10/11 00:18:22;;;;;;;3.97;2.47;;;;;;;;;;4986703;28;20242;-55
2022/10/11 00:20:48;;;;;;;2.87;2.30;;;;;;;;;;4989780;28;20186;-54
2022/10/11 00:23:15;;;;;;;3.20;2.57;;;;;;;;;;4982443;28;20596;-54
2022/10/11 00:25:41;;;;;;;4.77;3.17;;;;;;;;;;4992389;28;20179;-55
2022/10/11 00:28:07;;;;;;;5.30;2.57;;;;;;;;;;4988474;28;20602;-55
2022/10/11 00:30:33;;;;;;;4.87;3.03;;;;;;;;;;4991572;28;20189;-55
2022/10/11 00:32:59;;;;;;;3.80;3.17;;;;;;;;;;4990222;28;20187;-54
2022/10/11 00:35:26;;;;;;;3.60;3.00;;;;;;;;;;4983904;28;20265;-54
2022/10/11 00:37:55;;;;;;;4.47;2.87;;;;;;;;;;4967831;28;20214;-54
2022/10/11 00:40:21;;;;;;;3.43;2.60;;;;;;;;;;4986267;28;20179;-54
2022/10/11 00:42:47;;;;;;;3.53;2.63;;;;;;;;;;4962814;28;20285;-54
2022/10/11 00:45:25;;;;;;;4.50;2.90;;;;;;;;;;4986807;28;20224;-54
2022/10/11 00:47:56;;;;;;;4.90;2.77;;;;;;;;;;4978609;28;20175;-54
2022/10/11 00:50:24;;;;;;;5.13;2.63;;;;;;;;;;4991569;28;20570;-54
2022/10/11 00:52:53;;;;;;;4.57;3.17;;;;;;;;;;4970608;28;20273;-55
2022/10/11 00:55:20;;;;;;;3.13;2.70;;;;;;;;;;4973615;28;20183;-55
2022/10/11 00:57:48;;;;;;;4.70;2.80;;;;;;;;;;4952876;28;20196;-54
2022/10/11 01:00:14;;;;;;;3.23;2.60;;;;;;;;;;4968257;28;20188;-53
2022/10/11 01:02:41;;;;;;;3.17;2.87;;;;;;;;;;4968001;28;20269;-54
2022/10/11 01:05:09;;;;;;;2.60;2.40;;;;;;;;;;4944218;28;20184;-54
2022/10/11 01:07:36;;;;;;;3.40;2.40;;;;;;;;;;4975429;28;20207;-53
2022/10/11 01:10:02;;;;;;;4.20;2.50;;;;;;;;;;4980425;28;20535;-54
2022/10/11 01:12:29;;;;;;;4.17;2.20;;;;;;;;;;4968627;28;20184;-54
2022/10/11 01:15:10;;;;;;;3.10;2.60;;;;;;;;;;4967681;28;20702;-53
2022/10/11 01:17:51;;;;;;;3.60;2.77;;;;;;;;;;4970376;28;20183;-54
2022/10/11 01:20:31;;;;;;;5.00;2.50;;;;;;;;;;4965521;28;20280;-55
2022/10/11 01:23:07;;;;;;;4.07;2.90;;;;;;;;;;4974328;28;20270;-55
2022/10/11 01:25:48;;;;;;;3.23;2.40;;;;;;;;;;4968970;28;20183;-55
2022/10/11 01:28:18;;;;;;;3.10;2.70;;;;;;;;;;4973363;28;20609;-53
2022/10/11 01:30:44;;;;;;;4.60;3.40;;;;;;;;;;4975351;28;20226;-55
2022/10/11 01:33:10;;;;;;;3.03;2.60;;;;;;;;;;4970225;28;20179;-54
2022/10/11 01:35:42;;;;;;;4.37;2.73;;;;;;;;;;4970329;28;20262;-54
2022/10/11 01:38:13;;;;;;;6.53;2.63;;;;;;;;;;4976069;28;20179;-55
2022/10/11 01:40:48;;;;;;;3.07;2.40;;;;;;;;;;4952852;28;20194;-54
2022/10/11 01:43:15;;;;;;;3.10;1.93;;;;;;;;;;4970117;28;20183;-54
2022/10/11 01:45:42;;;;;;;2.97;2.30;;;;;;;;;;4971600;28;20188;-55
2022/10/11 01:48:10;;;;;;;3.53;2.40;;;;;;;;;;4971832;28;20188;-55
2022/10/11 01:50:44;;;;;;;3.07;2.23;;;;;;;;;;4970030;28;20642;-55
2022/10/11 01:53:22;;;;;;;3.23;2.40;;;;;;;;;;4967586;28;20262;-54
2022/10/11 01:56:15;;;;;;;4.20;2.27;;;;;;;;;;4971854;28;20175;-54
2022/10/11 01:58:50;;;;;;;4.10;2.70;;;;;;;;;;4947473;28;20184;-55
2022/10/11 02:01:35;;;;;;;2.53;2.30;;;;;;;;;;4969536;28;20219;-55
2022/10/11 02:04:04;;;;;;;4.13;2.43;;;;;;;;;;4964293;28;20271;-54
2022/10/11 02:06:46;;;;;;;2.40;2.20;;;;;;;;;;4949102;28;20254;-54
2022/10/11 02:09:26;;;;;;;2.77;2.00;;;;;;;;;;4964852;28;20708;-53
2022/10/11 02:11:56;;;;;;;2.50;2.30;;;;;;;;;;4968374;28;20187;-55
2022/10/11 02:14:24;;;;;;;3.57;2.47;;;;;;;;;;4967200;28;20187;-54
2022/10/11 02:17:03;;;;;;;6.40;2.90;;;;;;;;;;4970114;28;20330;-54
2022/10/11 02:19:32;;;;;;;2.83;2.17;;;;;;;;;;4939589;28;20546;-54
2022/10/11 02:22:03;;;;;;;4.07;2.50;;;;;;;;;;4965135;28;20242;-54
2022/10/11 02:24:32;;;;;;;3.77;2.70;;;;;;;;;;4950920;28;20235;-54
2022/10/11 02:26:59;;;;;;;4.60;2.33;;;;;;;;;;4968811;28;20180;-54
2022/10/11 02:29:27;;;;;;;3.90;2.27;;;;;;;;;;4967364;28;20176;-55
2022/10/11 02:31:54;;;;;;;2.60;2.37;;;;;;;;;;4967125;28;20335;-53
2022/10/11 02:34:23;;;;;;;3.13;2.10;;;;;;;;;;4964231;28;20626;-54
2022/10/11 02:37:01;;;;;;;4.43;2.10;;;;;;;;;;4959903;28;20652;-54
2022/10/11 02:39:31;;;;;;;5.10;2.60;;;;;;;;;;4963248;28;20654;-54
2022/10/11 02:41:59;;;;;;;4.83;2.90;;;;;;;;;;4967717;28;20195;-54
2022/10/11 02:44:31;;;;;;;5.07;2.40;;;;;;;;;;4967560;28;20247;-54
2022/10/11 02:46:58;;;;;;;4.53;2.80;;;;;;;;;;4967150;28;20689;-54
2022/10/11 02:49:26;;;;;;;2.90;2.20;;;;;;;;;;4945612;28;20586;-54
2022/10/11 02:51:54;;;;;;;3.33;2.60;;;;;;;;;;4968162;28;20214;-54
2022/10/11 02:54:20;;;;;;;3.83;2.87;;;;;;;;;;4958683;28;20223;-54
2022/10/11 02:56:46;;;;;;;4.43;3.27;;;;;;;;;;4964972;28;20306;-53
2022/10/11 02:59:12;;;;;;;5.37;2.63;;;;;;;;;;4964136;28;20258;-53
2022/10/11 03:01:38;;;;;;;4.23;2.80;;;;;;;;;;4960070;28;20211;-54
2022/10/11 03:04:04;;;;;;;3.57;2.50;;;;;;;;;;4965060;28;20175;-55
2022/10/11 03:06:31;;;;;;;7.13;2.93;;;;;;;;;;4962867;28;20176;-52
2022/10/11 03:08:57;;;;;;;3.00;2.70;;;;;;;;;;4965106;28;20184;-54
2022/10/11 03:11:24;;;;;;;7.50;3.20;;;;;;;;;;4967927;28;20184;-54
2022/10/11 03:13:50;;;;;;;2.50;2.30;;;;;;;;;;4953669;28;20180;-55
2022/10/11 03:16:16;;;;;;;4.00;3.60;;;;;;;;;;4967450;28;20191;-55
2022/10/11 03:18:42;;;;;;;8.23;3.23;;;;;;;;;;4951602;28;20195;-55
2022/10/11 03:21:12;;;;;;;4.70;2.67;;;;;;;;;;4959623;28;20389;-55
2022/10/11 03:23:39;;;;;;;5.87;3.23;;;;;;;;;;4961947;28;20302;-54
2022/10/11 03:26:06;;;;;;;3.57;3.00;;;;;;;;;;4968049;28;20514;-55
2022/10/11 03:28:32;;;;;;;5.20;3.13;;;;;;;;;;4956922;28;20753;-54
2022/10/11 03:30:59;;;;;;;4.03;3.20;;;;;;;;;;4949735;28;20206;-54
2022/10/11 03:33:25;;;;;;;4.27;3.87;;;;;;;;;;4966886;28;20184;-53
2022/10/11 03:35:51;;;;;;;7.67;3.07;;;;;;;;;;4966821;28;20180;-54
2022/10/11 03:38:19;;;;;;;7.23;2.97;;;;;;;;;;4966945;28;20626;-54
2022/10/11 03:40:45;;;;;;;7.87;3.73;;;;;;;;;;4968042;28;20223;-54
2022/10/11 03:43:11;;;;;;;3.40;2.87;;;;;;;;;;4949235;28;20187;-53
2022/10/11 03:45:37;;;;;;;5.43;3.27;;;;;;;;;;4967961;28;20560;-53
2022/10/11 03:48:04;;;;;;;4.97;3.90;;;;;;;;;;4966735;28;20712;-55
2022/10/11 03:50:30;;;;;;;3.50;3.07;;;;;;;;;;4969763;28;20242;-55
2022/10/11 03:52:56;;;;;;;4.03;3.30;;;;;;;;;;4981672;28;20571;-55
2022/10/11 03:55:22;;;;;;;3.40;2.67;;;;;;;;;;4985048;28;20567;-53
2022/10/11 03:57:49;;;;;;;4.40;3.23;;;;;;;;;;4990025;28;20317;-52
2022/10/11 04:00:15;;;;;;;3.80;3.50;;;;;;;;;;4986035;28;20174;-54
2022/10/11 04:02:41;;;;;;;5.30;3.80;;;;;;;;;;4969371;28;20278;-56
2022/10/11 04:05:07;;;;;;;4.10;3.70;;;;;;;;;;4982764;28;21421;-53
2022/10/11 04:07:33;;;;;;;4.53;3.83;;;;;;;;;;4979968;28;20178;-53
2022/10/11 04:09:59;;;;;;;4.30;3.77;;;;;;;;;;4985161;28;20190;-55
2022/10/11 04:12:25;;;;;;;4.80;3.33;;;;;;;;;;4992160;28;20179;-54
2022/10/11 04:14:51;;;;;;;5.37;3.63;;;;;;;;;;4985069;28;20179;-54
2022/10/11 04:17:17;;;;;;;4.13;3.27;;;;;;;;;;4983808;28;20179;-53
2022/10/11 04:19:43;;;;;;;5.53;3.13;;;;;;;;;;4982480;28;20175;-54
2022/10/11 04:22:10;;;;;;;3.27;2.97;;;;;;;;;;4991333;28;20249;-54
2022/10/11 04:24:36;;;;;;;5.80;3.30;;;;;;;;;;4988181;28;20246;-55
2022/10/11 04:27:09;;;;;;;5.57;3.97;;;;;;;;;;4974021;28;20175;-55
2022/10/11 04:29:35;;;;;;;4.50;3.60;;;;;;;;;;4969173;28;20234;-54
2022/10/11 04:32:02;;;;;;;4.23;3.37;;;;;;;;;;4985369;28;20175;-54
2022/10/11 04:34:28;;;;;;;5.37;3.60;;;;;;;;;;4989995;28;20553;-53
2022/10/11 04:36:54;;;;;;;3.73;3.33;;;;;;;;;;4996529;28;20195;-53
2022/10/11 04:39:20;;;;;;;4.20;3.40;;;;;;;;;;4971830;28;20545;-54
2022/10/11 04:41:53;;;;;;;5.90;4.37;;;;;;;;;;4987177;28;21087;-54
2022/10/11 04:44:19;;;;;;;6.23;4.33;;;;;;;;;;4987648;28;20176;-54
2022/10/11 04:46:45;;;;;;;5.50;3.80;;;;;;;;;;4998109;28;20175;-55
2022/10/11 04:49:11;;;;;;;5.27;3.70;;;;;;;;;;4990018;28;20619;-55
2022/10/11 04:51:37;;;;;;;6.40;3.43;;;;;;;;;;4975097;28;20262;-55
2022/10/11 04:54:04;;;;;;;4.33;3.90;;;;;;;;;;4971111;28;20386;-55
2022/10/11 04:56:30;;;;;;;5.53;3.63;;;;;;;;;;4964901;28;20191;-55
2022/10/11 04:58:56;;;;;;;4.97;3.93;;;;;;;;;;4981496;28;20176;-55
2022/10/11 05:01:22;;;;;;;5.77;3.63;;;;;;;;;;4959213;28;20195;-55
2022/10/11 05:03:49;;;;;;;5.60;4.13;;;;;;;;;;4952002;28;20274;-54
2022/10/11 05:06:15;;;;;;;4.77;4.17;;;;;;;;;;4952635;28;20180;-55
2022/10/11 05:08:41;;;;;;;5.07;4.13;;;;;;;;;;4985580;28;20314;-54
2022/10/11 05:11:08;;;;;;;5.73;4.37;;;;;;;;;;4975780;28;20653;-54
2022/10/11 05:13:34;;;;;;;6.60;4.30;;;;;;;;;;4968791;28;20176;-54
2022/10/11 05:16:01;;;;;;;4.83;3.90;;;;;;;;;;4970481;28;20171;-55
2022/10/11 05:18:27;;;;;;;4.47;3.50;;;;;;;;;;4982550;28;20266;-55
2022/10/11 05:21:00;;;;;;;4.93;3.93;;;;;;;;;;4970079;28;20553;-53
2022/10/11 05:23:26;;;;;;;4.27;3.87;;;;;;;;;;4978952;28;20191;-54
2022/10/11 05:25:52;;;;;;;4.93;4.13;;;;;;;;;;4970768;28;20247;-54
2022/10/11 05:28:19;;;;;;;6.90;4.93;;;;;;;;;;4972590;28;20286;-54
2022/10/11 05:30:45;;;;;;;5.93;4.30;;;;;;;;;;4977946;28;20211;-54
2022/10/11 05:33:11;;;;;;;5.03;4.13;;;;;;;;;;4967902;28;20180;-54
2022/10/11 05:35:40;;;;;;;4.83;4.30;;;;;;;;;;4971955;28;20172;-54
2022/10/11 05:38:06;;;;;;;4.93;4.27;;;;;;;;;;4974551;28;20180;-54
2022/10/11 05:40:32;;;;;;;5.37;4.20;;;;;;;;;;4970347;28;20235;-54
2022/10/11 05:43:01;;;;;;;6.83;4.50;;;;;;;;;;4968575;28;20492;-56
2022/10/11 05:45:28;;;;;;;9.27;4.83;;;;;;;;;;4967322;28;21019;-54
2022/10/11 05:47:54;;;;;;;6.57;4.47;;;;;;;;;;4954307;28;20183;-53
2022/10/11 05:50:20;;;;;;;6.00;4.63;;;;;;;;;;4970251;28;20203;-54
2022/10/11 05:52:46;;;;;;;6.90;4.80;;;;;;;;;;4974518;28;20646;-54
2022/10/11 05:55:12;;;;;;;6.50;4.07;;;;;;;;;;4979924;28;20190;-54
2022/10/11 05:57:38;;;;;;;6.47;4.47;;;;;;;;;;4976015;28;20718;-53
2022/10/11 06:00:05;;;;;;;7.33;5.10;;;;;;;;;;4983994;28;20578;-53
2022/10/11 06:02:33;;;;;;;8.10;5.07;;;;;;;;;;4954822;28;20298;-54
2022/10/11 06:04:59;;;;;;;5.27;4.30;;;;;;;;;;4952209;28;20723;-54
2022/10/11 06:07:25;;;;;;;6.83;4.87;;;;;;;;;;4970479;28;20538;-55
2022/10/11 06:09:52;;;;;;;5.40;4.53;;;;;;;;;;4967051;28;20183;-53
2022/10/11 06:12:18;;;;;;;6.73;5.87;;;;;;;;;;4973992;28;20656;-59
2022/10/11 06:14:44;;;;;;;6.50;4.60;;;;;;;;;;4971875;28;20587;-53
2022/10/11 06:17:10;;;;;;;5.50;4.37;;;;;;;;;;4986028;28;20594;-55
2022/10/11 06:19:36;;;;;;;7.00;3.93;;;;;;;;;;4966875;28;20545;-54
2022/10/11 06:22:02;;;;;;;5.20;4.27;;;;;;;;;;4970767;28;20721;-54
2022/10/11 06:24:28;;;;;;;5.37;4.20;;;;;;;;;;4959998;28;20215;-54
2022/10/11 06:26:54;;;;;;;5.23;4.10;;;;;;;;;;4963657;28;20669;-55
2022/10/11 06:29:21;;;;;;;6.07;4.90;;;;;;;;;;4965344;28;20173;-54
2022/10/11 06:31:47;;;;;;;8.00;4.67;;;;;;;;;;4964719;28;20180;-54
2022/10/11 06:34:14;;;;;;;8.77;4.70;;;;;;;;;;4964696;28;20642;-54
2022/10/11 06:36:40;;;;;;;8.73;6.17;;;;;;;;;;4956689;28;20188;-52
2022/10/11 06:39:06;;;;;;;9.63;6.07;;;;;;;;;;4964263;28;20257;-52
2022/10/11 06:41:33;;;;;;;11.73;6.72;;;;;;;;;;4975073;28;20949;-55
2022/10/11 06:43:59;;;;;;;11.30;6.17;;;;;;;;;;4972410;28;20663;-54
2022/10/11 06:46:26;;;;;;;10.23;5.40;;;;;;;;;;4971819;28;20207;-54
2022/10/11 06:48:52;;;;;;;8.10;5.27;;;;;;;;;;4959246;28;20530;-54
2022/10/11 06:51:20;;;;;;;8.83;4.90;;;;;;;;;;4967629;28;20203;-55
2022/10/11 06:53:49;;;;;;;9.13;4.97;;;;;;;;;;4978950;28;20898;-54
2022/10/11 06:56:15;;;;;;;10.60;4.90;;;;;;;;;;4997620;28;20182;-55
2022/10/11 06:58:41;;;;;;;8.47;4.53;;;;;;;;;;4968252;28;20189;-54
2022/10/11 07:01:09;;;;;;;8.60;6.00;;;;;;;;;;4983761;28;20182;-54
2022/10/11 07:03:36;;;;;;;10.27;4.50;;;;;;;;;;4986285;28;20170;-54
2022/10/11 07:06:02;;;;;;;7.33;5.20;;;;;;;;;;4989083;28;20179;-54
2022/10/11 07:08:28;;;;;;;7.87;4.57;;;;;;;;;;4986280;28;20482;-54
2022/10/11 07:10:59;;;;;;;5.87;5.10;;;;;;;;;;4985672;28;20468;-55
2022/10/11 07:13:25;;;;;;;9.93;4.60;;;;;;;;;;4983458;28;20183;-54
2022/10/11 07:15:51;;;;;;;5.20;4.70;;;;;;;;;;4987273;28;20175;-53
2022/10/11 07:18:17;;;;;;;8.40;5.00;;;;;;;;;;4980282;28;20191;-54
2022/10/11 07:20:43;;;;;;;6.07;4.10;;;;;;;;;;4987352;28;20198;-54
2022/10/11 07:23:09;;;;;;;9.60;4.97;;;;;;;;;;4967281;28;20279;-54
2022/10/11 07:25:35;;;;;;;6.20;4.17;;;;;;;;;;4985653;28;20688;-54
2022/10/11 07:28:01;;;;;;;5.70;4.37;;;;;;;;;;4982494;28;20183;-53
2022/10/11 07:30:27;;;;;;;6.63;4.43;;;;;;;;;;4984852;28;20196;-54
2022/10/11 07:32:53;;;;;;;5.73;4.37;;;;;;;;;;4985758;28;20624;-53
2022/10/11 07:35:20;;;;;;;5.03;4.10;;;;;;;;;;4974245;28;20556;-54
2022/10/11 07:37:46;;;;;;;5.67;4.03;;;;;;;;;;4994518;28;20183;-54
2022/10/11 07:40:12;;;;;;;4.03;3.53;;;;;;;;;;4988274;28;20215;-54
2022/10/11 07:42:38;;;;;;;5.17;4.03;;;;;;;;;;4995253;28;20206;-54
2022/10/11 07:45:04;;;;;;;5.03;4.40;;;;;;;;;;4987286;28;20190;-55
2022/10/11 07:47:30;;;;;;;4.20;3.50;;;;;;;;;;4988863;28;20191;-55
2022/10/11 07:49:56;;;;;;;5.33;4.20;;;;;;;;;;4972946;28;20668;-54
2022/10/11 07:52:22;;;;;;;4.37;3.50;;;;;;;;;;4985935;28;20211;-54
2022/10/11 07:54:49;;;;;;;5.67;4.10;;;;;;;;;;4987418;28;20570;-54
2022/10/11 07:57:15;;;;;;;6.93;4.07;;;;;;;;;;4995068;28;20419;-54
2022/10/11 07:59:42;;;;;;;4.23;3.83;;;;;;;;;;4987994;28;20633;-54
2022/10/11 08:02:12;;;;;;;4.77;3.67;;;;;;;;;;4983591;28;20202;-53
2022/10/11 08:04:38;;;;;;;3.83;3.47;;;;;;;;;;4985172;28;20194;-55
2022/10/11 08:07:05;;;;;;;4.90;3.60;;;;;;;;;;4987741;28;20530;-54
2022/10/11 08:09:31;;;;;;;6.90;3.77;;;;;;;;;;4982172;28;20179;-54
2022/10/11 08:11:57;;;;;;;4.53;3.57;;;;;;;;;;4987746;28;20398;-54
2022/10/11 08:14:23;;;;;;;5.10;4.10;;;;;;;;;;4985869;28;20179;-54
2022/10/11 08:16:50;;;;;;;4.63;3.57;;;;;;;;;;4992983;28;20256;-54
2022/10/11 08:19:17;;;;;;;6.23;3.50;;;;;;;;;;4961999;28;20191;-54
2022/10/11 08:21:44;;;;;;;5.70;3.57;;;;;;;;;;4987628;28;20615;-54
2022/10/11 08:24:15;;;;;;;3.77;3.37;;;;;;;;;;4967141;28;20199;-54
2022/10/11 08:26:41;;;;;;;4.73;3.70;;;;;;;;;;4986240;28;20900;-54
2022/10/11 08:29:08;;;;;;;5.03;4.00;;;;;;;;;;4967578;28;20186;-54
2022/10/11 08:31:34;;;;;;;5.57;3.67;;;;;;;;;;4966936;28;20198;-54
2022/10/11 08:34:01;;;;;;;3.97;3.40;;;;;;;;;;4985976;28;20191;-54
2022/10/11 08:36:27;;;;;;;4.00;3.50;;;;;;;;;;4969967;28;20755;-54
2022/10/11 08:38:53;;;;;;;5.23;3.90;;;;;;;;;;4966741;28;20650;-54
2022/10/11 08:41:27;;;;;;;4.37;3.67;;;;;;;;;;4982751;28;20198;-53
2022/10/11 08:44:29;;;;;;;4.83;4.23;;;;;;;;;;4981069;28;20542;-54
2022/10/11 08:47:18;;;;;;;6.33;3.87;;;;;;;;;;4924818;29;20233;-54
2022/10/11 08:49:45;;;;;;;6.57;3.93;;;;;;;;;;4976569;28;20188;-53
2022/10/11 08:52:31;;;;;;;7.20;4.27;;;;;;;;;;4966340;28;20203;-54
2022/10/11 08:54:59;;;;;;;5.70;4.13;;;;;;;;;;4972409;28;20223;-53
2022/10/11 08:57:29;;;;;;;4.40;4.00;;;;;;;;;;4985738;28;20194;-54
2022/10/11 08:59:59;;;;;;;5.53;4.80;;;;;;;;;;4965177;28;20274;-54
2022/10/11 09:02:31;;;;;;;5.23;4.10;;;;;;;;;;4983936;28;20206;-54
2022/10/11 09:04:57;;;;;;;7.30;4.23;;;;;;;;;;4985344;28;20565;-53
2022/10/11 09:07:23;;;;;;;6.20;4.20;;;;;;;;;;4968052;28;20186;-54
2022/10/11 09:10:12;;;;;;;5.73;3.70;;;;;;;;;;4985059;28;20186;-54
2022/10/11 09:12:41;;;;;;;8.27;4.53;;;;;;;;;;4987513;28;20198;-53
2022/10/11 09:15:25;;;;;;;4.47;3.97;;;;;;;;;;4985442;28;20192;-54
2022/10/11 09:18:04;;;;;;;5.83;4.10;;;;;;;;;;4975121;28;20716;-54
2022/10/11 09:20:48;;;;;;;7.63;5.13;;;;;;;;;;4988565;28;20220;-55
2022/10/11 09:23:21;;;;;;;4.77;4.27;;;;;;;;;;4971615;28;20680;-52
2022/10/11 09:25:50;;;;;;;6.33;4.37;;;;;;;;;;4988331;28;20517;-54
2022/10/11 09:28:28;;;;;;;5.63;4.07;;;;;;;;;;4988726;28;20551;-53
2022/10/11 09:30:55;;;;;;;4.93;4.07;;;;;;;;;;4985955;28;21053;-54
2022/10/11 09:33:35;;;;;;;6.67;4.40;;;;;;;;;;4991756;28;20622;-54
2022/10/11 09:36:02;;;;;;;6.23;4.13;;;;;;;;;;4990088;28;20178;-54
2022/10/11 09:38:37;;;;;;;5.33;3.70;;;;;;;;;;4968383;28;20179;-54
2022/10/11 09:41:15;;;;;;;6.60;4.40;;;;;;;;;;4995461;28;20198;-54
2022/10/11 09:43:47;;;;;;;5.17;4.40;;;;;;;;;;4990558;28;20229;-54
2022/10/11 09:46:19;;;;;;;6.60;5.03;;;;;;;;;;4986201;28;20502;-53
2022/10/11 09:48:45;;;;;;;8.50;5.93;;;;;;;;;;4987807;28;20174;-55
2022/10/11 09:51:14;;;;;;;7.30;5.20;;;;;;;;;;4989514;28;20199;-53
2022/10/11 09:53:51;;;;;;;7.33;5.07;;;;;;;;;;4977553;28;20757;-54
2022/10/11 09:56:17;;;;;;;8.00;6.70;;;;;;;;;;4949795;28;20266;-54
2022/10/11 09:58:44;;;;;;;8.27;5.70;;;;;;;;;;4968751;28;20192;-54
2022/10/11 10:01:12;;;;;;;7.87;5.03;;;;;;;;;;4966219;28;20646;-54
2022/10/11 10:03:46;;;;;;;7.53;6.30;;;;;;;;;;4968240;28;20184;-54
2022/10/11 10:06:27;;;;;;;6.07;5.33;;;;;;;;;;4966010;28;20227;-54
2022/10/11 10:08:54;;;;;;;13.60;9.03;;;;;;;;;;4965004;28;20673;-54
2022/10/11 10:11:21;;;;;;;9.77;8.63;;;;;;;;;;4966571;28;20184;-54
2022/10/11 10:13:54;;;;;;;10.17;8.97;;;;;;;;;;4958208;28;20187;-54
2022/10/11 10:16:28;;;;;;;11.47;8.43;;;;;;;;;;4962751;28;20639;-54
2022/10/11 10:18:58;;;;;;;8.70;7.80;;;;;;;;;;4961910;28;20227;-54
2022/10/11 10:21:30;;;;;;;13.23;9.27;;;;;;;;;;4946098;28;20756;-54
2022/10/11 10:23:58;;;;;;;15.60;11.00;;;;;;;;;;4958599;28;20259;-54
2022/10/11 10:26:26;;;;;;;15.93;10.70;;;;;;;;;;4968526;28;20642;-54
2022/10/11 10:29:00;;;;;;;10.00;8.27;;;;;;;;;;4968577;28;20169;-54
2022/10/11 10:31:40;;;;;;;14.30;11.47;;;;;;;;;;4965050;28;20184;-54
2022/10/11 10:34:14;;;;;;;14.50;10.93;;;;;;;;;;4956631;28;21451;-53
2022/10/11 10:36:52;;;;;;;18.63;12.97;;;;;;;;;;4966623;28;20187;-54
2022/10/11 10:39:28;;;;;;;15.37;12.03;;;;;;;;;;4948618;28;20583;-54
2022/10/11 10:41:54;;;;;;;17.13;12.07;;;;;;;;;;4968186;28;20729;-54
2022/10/11 10:44:20;;;;;;;15.97;12.57;;;;;;;;;;4962178;28;20183;-55
2022/10/11 10:46:59;;;;;;;17.00;10.83;;;;;;;;;;4950068;28;20705;-55
2022/10/11 10:49:30;;;;;;;17.03;11.83;;;;;;;;;;4961908;28;20547;-55
2022/10/11 10:51:56;;;;;;;19.33;12.73;;;;;;;;;;4967895;28;20216;-55
2022/10/11 10:54:22;;;;;;;18.90;14.50;;;;;;;;;;4977723;28;20219;-55
2022/10/11 10:56:53;;;;;;;16.80;12.77;;;;;;;;;;4989085;28;20206;-55
2022/10/11 10:59:26;;;;;;;19.30;13.80;;;;;;;;;;4984002;28;20188;-54
2022/10/11 11:02:00;;;;;;;18.27;15.23;;;;;;;;;;4982392;28;20214;-54
2022/10/11 11:04:31;;;;;;;14.20;11.90;;;;;;;;;;4986393;28;20610;-55
2022/10/11 11:07:16;;;;;;;16.57;12.47;;;;;;;;;;4988687;28;20183;-55
2022/10/11 11:09:58;;;;;;;22.90;17.40;;;;;;;;;;4984443;28;20229;-52
2022/10/11 11:12:45;;;;;;;21.87;16.30;;;;;;;;;;4986397;28;20649;-53
2022/10/11 11:15:20;;;;;;;25.83;16.37;;;;;;;;;;4985640;28;20643;-54
2022/10/11 11:18:05;;;;;;;25.83;18.20;;;;;;;;;;4999973;28;20470;-54
2022/10/11 11:20:53;;;;;;;28.77;17.73;;;;;;;;;;4983684;28;20620;-54
2022/10/11 11:23:36;;;;;;;23.93;14.93;;;;;;;;;;4983952;28;20209;-53
2022/10/11 11:26:07;;;;;;;21.20;14.47;;;;;;;;;;4985492;28;20187;-54
2022/10/11 11:28:43;;;;;;;20.50;14.00;;;;;;;;;;4989506;28;20465;-54
2022/10/11 11:31:12;;;;;;;25.13;15.53;;;;;;;;;;4994938;28;20523;-54
2022/10/11 11:33:54;;;;;;;19.07;14.37;;;;;;;;;;4987236;28;20183;-54
2022/10/11 11:36:27;;;;;;;19.00;13.33;;;;;;;;;;4993646;28;20626;-53
2022/10/11 11:38:56;;;;;;;20.90;15.03;;;;;;;;;;4995859;28;20183;-55
2022/10/11 11:41:27;;;;;;;20.63;12.97;;;;;;;;;;4995201;28;20317;-54
2022/10/11 11:44:00;;;;;;;22.03;13.57;;;;;;;;;;4969384;28;20179;-55
2022/10/11 11:46:32;;;;;;;30.30;16.73;;;;;;;;;;4986034;28;20179;-53
2022/10/11 11:49:00;;;;;;;23.53;15.13;;;;;;;;;;4967934;28;20619;-53
2022/10/11 11:51:38;;;;;;;20.87;14.13;;;;;;;;;;4987340;28;20250;-53
2022/10/11 11:54:10;;;;;;;21.90;13.97;;;;;;;;;;4979636;28;20231;-54
2022/10/11 11:56:51;;;;;;;18.90;13.70;;;;;;;;;;4965595;28;20180;-54
2022/10/11 11:59:23;;;;;;;23.90;15.17;;;;;;;;;;4966520;28;20184;-54
2022/10/11 12:01:57;;;;;;;28.10;14.97;;;;;;;;;;4967389;28;20199;-54
2022/10/11 12:04:29;;;;;;;20.70;14.03;;;;;;;;;;4964260;28;20458;-54
2022/10/11 12:07:00;;;;;;;20.53;12.90;;;;;;;;;;4967250;28;20188;-53
2022/10/11 12:09:26;;;;;;;23.67;14.37;;;;;;;;;;4962826;28;20180;-53
2022/10/11 12:11:54;;;;;;;19.63;13.27;;;;;;;;;;4965141;28;20227;-52
2022/10/11 12:14:26;;;;;;;23.13;14.03;;;;;;;;;;4965173;28;20203;-53
2022/10/11 12:17:05;;;;;;;19.50;12.57;;;;;;;;;;4967542;28;20582;-53
2022/10/11 12:19:31;;;;;;;19.70;11.40;;;;;;;;;;4971883;28;20245;-53
2022/10/11 12:22:16;;;;;;;15.50;12.23;;;;;;;;;;4969130;28;20609;-54
2022/10/11 12:25:20;;;;;;;17.63;11.17;;;;;;;;;;4962945;28;20254;-53
2022/10/11 12:27:46;;;;;;;15.73;10.83;;;;;;;;;;4949558;28;20186;-52
2022/10/11 12:30:31;;;;;;;13.83;10.47;;;;;;;;;;4967748;28;20183;-53
2022/10/11 12:33:13;;;;;;;19.17;11.63;;;;;;;;;;4960943;28;20221;-53
2022/10/11 12:35:41;;;;;;;12.80;9.90;;;;;;;;;;4966244;28;20180;-53
2022/10/11 12:38:18;;;;;;;21.35;14.05;;;;;;;;;;4966284;28;20826;-52
2022/10/11 12:40:46;;;;;;;16.07;11.33;;;;;;;;;;4968182;28;20548;-53
2022/10/11 12:43:15;;;;;;;22.60;10.73;;;;;;;;;;4966583;28;20300;-53
2022/10/11 12:45:46;;;;;;;16.70;11.70;;;;;;;;;;4971203;28;20180;-53
2022/10/11 12:48:31;;;;;;;15.97;8.83;;;;;;;;;;4969439;28;20235;-51
2022/10/11 12:50:57;;;;;;;16.70;10.23;;;;;;;;;;4971101;28;20286;-52
2022/10/11 12:53:29;;;;;;;12.47;9.10;;;;;;;;;;4973137;28;20246;-52
2022/10/11 12:56:14;;;;;;;12.83;9.67;;;;;;;;;;4987989;28;20824;-52
2022/10/11 12:58:40;;;;;;;14.50;8.43;;;;;;;;;;4989099;28;20188;-52
2022/10/11 13:01:08;;;;;;;13.10;8.60;;;;;;;;;;4983597;28;20616;-52
2022/10/11 13:03:49;;;;;;;14.20;8.40;;;;;;;;;;4990844;28;20184;-53
2022/10/11 13:06:16;;;;;;;13.93;7.17;;;;;;;;;;4982067;28;20214;-53
2022/10/11 13:08:43;;;;;;;11.53;6.13;;;;;;;;;;4999629;28;20656;-52
2022/10/11 13:11:10;;;;;;;13.47;6.67;;;;;;;;;;4994035;28;20171;-52
2022/10/11 13:13:41;;;;;;;11.33;6.23;;;;;;;;;;4989445;28;20567;-53
2022/10/11 13:16:17;;;;;;;13.30;7.13;;;;;;;;;;4963542;28;20229;-52
2022/10/11 13:18:45;;;;;;;15.90;6.27;;;;;;;;;;4987646;28;20184;-53
2022/10/11 13:21:29;;;;;;;12.03;7.20;;;;;;;;;;4989999;28;20196;-52
2022/10/11 13:23:59;;;;;;;11.27;6.63;;;;;;;;;;4999367;28;20530;-53
2022/10/11 13:26:26;;;;;;;13.40;8.30;;;;;;;;;;4991245;28;20183;-53
2022/10/11 13:28:52;;;;;;;16.57;8.33;;;;;;;;;;4989598;28;20175;-53
2022/10/11 13:31:18;;;;;;;15.60;8.33;;;;;;;;;;4994038;28;20258;-53
2022/10/11 13:33:45;;;;;;;16.83;8.07;;;;;;;;;;4988506;28;20688;-53
2022/10/11 13:36:19;;;;;;;14.43;7.37;;;;;;;;;;4997455;28;20528;-52
2022/10/11 13:38:59;;;;;;;16.50;7.80;;;;;;;;;;4993195;28;20179;-53
2022/10/11 13:41:26;;;;;;;15.00;7.00;;;;;;;;;;4992038;28;20175;-53
2022/10/11 13:43:52;;;;;;;11.33;7.50;;;;;;;;;;4988585;28;20191;-53
2022/10/11 13:46:20;;;;;;;12.90;7.50;;;;;;;;;;4992731;28;20229;-53
2022/10/11 13:48:55;;;;;;;11.20;7.63;;;;;;;;;;4988620;28;20205;-53
2022/10/11 13:51:31;;;;;;;13.07;7.70;;;;;;;;;;4986355;28;20735;-52
2022/10/11 13:54:02;;;;;;;10.07;7.50;;;;;;;;;;4993507;28;20553;-52
2022/10/11 13:56:29;;;;;;;12.60;8.30;;;;;;;;;;4971048;28;20657;-53
2022/10/11 13:58:56;;;;;;;15.47;8.83;;;;;;;;;;4989962;28;20169;-53
2022/10/11 14:01:27;;;;;;;10.20;7.67;;;;;;;;;;4976925;28;20248;-54
2022/10/11 14:03:54;;;;;;;10.97;5.07;;;;;;;;;;4988163;28;20178;-53
2022/10/11 14:06:21;;;;;;;10.60;5.80;;;;;;;;;;4972581;28;20172;-53
2022/10/11 14:08:51;;;;;;;12.23;5.23;;;;;;;;;;4988739;28;20517;-53
2022/10/11 14:11:31;;;;;;;6.83;4.37;;;;;;;;;;4991402;28;20182;-53
2022/10/11 14:13:57;;;;;;;9.03;3.90;;;;;;;;;;4989527;28;20202;-53
2022/10/11 14:16:23;;;;;;;6.13;3.70;;;;;;;;;;4984407;28;20182;-53
2022/10/11 14:18:51;;;;;;;7.90;3.77;;;;;;;;;;4984747;28;20186;-53
2022/10/11 14:21:20;;;;;;;9.93;4.97;;;;;;;;;;4991750;28;20190;-53
2022/10/11 14:23:52;;;;;;;7.00;3.93;;;;;;;;;;4986819;28;20228;-53
2022/10/11 14:26:19;;;;;;;7.20;3.20;;;;;;;;;;4989297;28;20182;-53
2022/10/11 14:28:45;;;;;;;7.37;3.30;;;;;;;;;;4992799;28;20200;-53
2022/10/11 14:31:11;;;;;;;5.73;2.97;;;;;;;;;;4997623;28;20574;-53
2022/10/11 14:33:37;;;;;;;5.20;2.93;;;;;;;;;;4993590;28;20273;-52
2022/10/11 14:36:04;;;;;;;8.43;2.80;;;;;;;;;;4988741;28;20190;-52
2022/10/11 14:38:30;;;;;;;7.80;3.00;;;;;;;;;;4986211;28;20234;-53
2022/10/11 14:40:56;;;;;;;4.97;3.27;;;;;;;;;;4989508;28;20214;-53
2022/10/11 14:43:22;;;;;;;6.70;2.97;;;;;;;;;;4988961;28;20262;-52
2022/10/11 14:45:48;;;;;;;5.70;3.10;;;;;;;;;;4993787;28;20178;-53
2022/10/11 14:48:14;;;;;;;7.27;3.67;;;;;;;;;;4992280;28;20580;-53
2022/10/11 14:50:45;;;;;;;7.47;3.43;;;;;;;;;;4988809;28;20209;-53
2022/10/11 14:53:11;;;;;;;14.43;3.37;;;;;;;;;;4986653;28;20255;-53